Time;durP1;ratioP1;P1;durP2;ratioP2;P2;SDS_P1;SDS_P2;PMS_P1;PMS_P2;Temp;Humidity;BMP_temperature;BMP_pressure;BME280_temperature;BME280_humidity;BME280_pressure;Samples;Min_cycle;Max_cycle;Signal;HPM_P1;HPM_P2
2020/12/13 00:00:00;;;;;;;71.57;34.72;;;;;;;;;;2073746;28;20181;-59
2020/12/13 00:01:01;;;;;;;76.60;35.95;;;;;;;;;;2065002;28;20220;-60
2020/12/13 00:02:08;;;;;;;68.88;35.85;;;;;;;;;;2073675;28;20648;-59
2020/12/13 00:03:08;;;;;;;69.63;34.83;;;;;;;;;;2074556;28;20224;-61
2020/12/13 00:04:08;;;;;;;69.10;34.88;;;;;;;;;;2073821;28;20199;-61
2020/12/13 00:05:08;;;;;;;70.65;36.08;;;;;;;;;;2064249;28;20273;-53
2020/12/13 00:06:09;;;;;;;72.38;36.05;;;;;;;;;;2056552;28;20198;-59
2020/12/13 00:08:13;;;;;;;66.22;35.90;;;;;;;;;;2085444;28;20258;-61
2020/12/13 00:09:13;;;;;;;69.07;34.88;;;;;;;;;;2090302;28;20180;-63
2020/12/13 00:10:13;;;;;;;69.80;38.25;;;;;;;;;;2089264;28;20167;-62
2020/12/13 00:11:16;;;;;;;78.30;37.00;;;;;;;;;;2090163;28;20763;-62
2020/12/13 00:12:16;;;;;;;68.82;36.92;;;;;;;;;;2088059;28;20656;-61
2020/12/13 00:13:16;;;;;;;78.95;37.03;;;;;;;;;;2086424;28;20256;-58
2020/12/13 00:14:16;;;;;;;72.70;37.20;;;;;;;;;;2089420;28;20191;-62
2020/12/13 00:15:17;;;;;;;72.43;37.08;;;;;;;;;;2087645;28;20183;-62
2020/12/13 00:16:18;;;;;;;72.63;35.67;;;;;;;;;;2088221;28;20195;-60
2020/12/13 00:17:18;;;;;;;70.68;35.65;;;;;;;;;;2090961;28;20302;-61
2020/12/13 00:18:20;;;;;;;71.22;35.55;;;;;;;;;;2087886;28;20187;-61
2020/12/13 00:19:20;;;;;;;68.82;35.65;;;;;;;;;;2090515;28;20192;-58
2020/12/13 00:20:20;;;;;;;75.70;35.03;;;;;;;;;;2088440;28;20180;-63
2020/12/13 00:21:26;;;;;;;66.47;35.50;;;;;;;;;;2084161;28;20267;-60
2020/12/13 00:22:26;;;;;;;67.68;34.40;;;;;;;;;;2082512;28;20545;-59
2020/12/13 00:23:26;;;;;;;70.05;36.30;;;;;;;;;;2090694;28;20180;-60
2020/12/13 00:24:26;;;;;;;63.97;35.95;;;;;;;;;;2074934;28;20215;-60
2020/12/13 00:25:26;;;;;;;65.88;34.97;;;;;;;;;;2071391;28;20189;-61
2020/12/13 00:26:27;;;;;;;69.22;35.13;;;;;;;;;;2081509;28;20215;-61
2020/12/13 00:27:27;;;;;;;61.90;35.67;;;;;;;;;;2081101;28;20184;-60
2020/12/13 00:28:27;;;;;;;68.13;35.92;;;;;;;;;;2082926;28;20192;-59
2020/12/13 00:29:27;;;;;;;70.78;36.65;;;;;;;;;;2091425;28;20168;-61
2020/12/13 00:30:28;;;;;;;81.30;37.20;;;;;;;;;;2088270;28;20237;-62
2020/12/13 00:31:28;;;;;;;64.22;34.63;;;;;;;;;;2083389;28;20191;-61
2020/12/13 00:32:29;;;;;;;70.70;36.90;;;;;;;;;;2075195;28;20169;-59
2020/12/13 00:33:29;;;;;;;76.65;37.88;;;;;;;;;;2081846;28;20172;-61
2020/12/13 00:34:31;;;;;;;71.07;36.35;;;;;;;;;;2089242;28;20675;-59
2020/12/13 00:35:32;;;;;;;72.57;36.25;;;;;;;;;;2080927;28;20192;-60
2020/12/13 00:36:32;;;;;;;75.22;37.85;;;;;;;;;;2076148;28;20228;-61
2020/12/13 00:37:33;;;;;;;76.25;36.83;;;;;;;;;;2086396;28;20199;-59
2020/12/13 00:38:33;;;;;;;79.60;36.70;;;;;;;;;;2086940;28;20234;-58
2020/12/13 00:39:37;;;;;;;63.47;35.70;;;;;;;;;;2074735;28;20189;-63
2020/12/13 00:40:38;;;;;;;67.18;36.30;;;;;;;;;;2076168;28;20192;-59
2020/12/13 00:41:38;;;;;;;70.10;35.53;;;;;;;;;;2086887;28;20211;-58
2020/12/13 00:42:38;;;;;;;66.45;35.42;;;;;;;;;;2082273;28;20176;-61
2020/12/13 00:43:39;;;;;;;69.68;36.40;;;;;;;;;;2081501;28;20168;-60
2020/12/13 00:44:39;;;;;;;73.68;36.58;;;;;;;;;;2085091;28;20232;-59
2020/12/13 00:45:39;;;;;;;80.47;37.47;;;;;;;;;;2087503;28;20676;-62
2020/12/13 00:46:39;;;;;;;71.60;36.50;;;;;;;;;;2091157;28;20255;-57
2020/12/13 00:47:39;;;;;;;72.57;36.65;;;;;;;;;;2082881;28;20195;-60
2020/12/13 00:48:40;;;;;;;73.60;36.40;;;;;;;;;;2080027;28;20709;-59
2020/12/13 00:49:40;;;;;;;67.43;35.17;;;;;;;;;;2081656;28;20671;-61
2020/12/13 00:50:40;;;;;;;67.85;36.53;;;;;;;;;;2083522;28;20637;-59
2020/12/13 00:51:41;;;;;;;69.37;37.70;;;;;;;;;;2088792;28;20180;-61
2020/12/13 00:52:41;;;;;;;77.57;36.60;;;;;;;;;;2082675;28;20192;-60
2020/12/13 00:53:43;;;;;;;82.18;36.88;;;;;;;;;;2081557;28;20180;-63
2020/12/13 00:54:43;;;;;;;75.53;38.10;;;;;;;;;;2082450;28;20188;-63
2020/12/13 00:55:45;;;;;;;72.35;37.60;;;;;;;;;;2076769;28;20181;-62
2020/12/13 00:56:47;;;;;;;75.28;35.53;;;;;;;;;;2082253;28;20184;-61
2020/12/13 00:57:50;;;;;;;74.90;35.65;;;;;;;;;;2090246;28;20198;-58
2020/12/13 00:58:51;;;;;;;81.53;38.97;;;;;;;;;;2091677;28;20262;-61
2020/12/13 00:59:51;;;;;;;83.18;37.90;;;;;;;;;;2092581;28;20180;-64
2020/12/13 01:00:51;;;;;;;89.72;40.78;;;;;;;;;;2092027;28;20175;-60
2020/12/13 01:01:51;;;;;;;89.63;40.67;;;;;;;;;;2092756;28;20188;-59
2020/12/13 01:02:52;;;;;;;83.78;39.83;;;;;;;;;;2093430;28;20187;-58
2020/12/13 01:03:53;;;;;;;82.57;38.78;;;;;;;;;;2089820;28;20261;-60
2020/12/13 01:04:53;;;;;;;87.90;39.95;;;;;;;;;;2089389;28;20251;-61
2020/12/13 01:05:53;;;;;;;85.45;39.40;;;;;;;;;;2080516;28;20279;-60
2020/12/13 01:06:53;;;;;;;85.65;41.40;;;;;;;;;;2077085;28;20180;-62
2020/12/13 01:07:54;;;;;;;77.13;40.38;;;;;;;;;;2085698;28;20210;-62
2020/12/13 01:08:55;;;;;;;85.72;39.30;;;;;;;;;;2090176;28;20265;-58
2020/12/13 01:09:55;;;;;;;84.35;40.53;;;;;;;;;;2083976;28;20187;-62
2020/12/13 01:10:55;;;;;;;89.63;41.17;;;;;;;;;;2079675;28;20580;-58
2020/12/13 01:11:55;;;;;;;97.30;42.08;;;;;;;;;;2076232;28;20177;-61
2020/12/13 01:12:56;;;;;;;88.63;41.55;;;;;;;;;;2083842;28;20671;-59
2020/12/13 01:13:56;;;;;;;86.93;39.75;;;;;;;;;;2092245;28;20210;-59
2020/12/13 01:14:57;;;;;;;100.72;43.83;;;;;;;;;;2090289;28;20187;-56
2020/12/13 01:15:57;;;;;;;91.82;41.13;;;;;;;;;;2081051;28;20178;-60
2020/12/13 01:16:57;;;;;;;101.95;42.72;;;;;;;;;;2083248;28;20195;-61
2020/12/13 01:17:58;;;;;;;80.88;40.33;;;;;;;;;;2094719;28;20195;-62
2020/12/13 01:18:59;;;;;;;79.57;39.53;;;;;;;;;;2089598;28;20235;-62
2020/12/13 01:20:00;;;;;;;82.80;39.63;;;;;;;;;;2090432;28;20175;-61
2020/12/13 01:21:00;;;;;;;91.00;40.38;;;;;;;;;;2092641;28;20622;-62
2020/12/13 01:22:01;;;;;;;81.65;39.15;;;;;;;;;;2083796;28;20187;-61
2020/12/13 01:23:01;;;;;;;82.68;39.65;;;;;;;;;;2082001;28;20199;-59
2020/12/13 01:24:01;;;;;;;92.60;41.28;;;;;;;;;;2081795;28;20278;-61
2020/12/13 01:25:02;;;;;;;81.10;39.67;;;;;;;;;;2079731;28;20187;-62
2020/12/13 01:26:02;;;;;;;97.63;41.28;;;;;;;;;;2092300;28;20547;-61
2020/12/13 01:27:02;;;;;;;89.95;39.53;;;;;;;;;;2086967;28;20176;-61
2020/12/13 01:28:03;;;;;;;89.65;40.25;;;;;;;;;;2086447;28;20190;-59
2020/12/13 01:29:03;;;;;;;87.70;37.72;;;;;;;;;;2089700;28;20758;-58
2020/12/13 01:30:09;;;;;;;87.13;38.55;;;;;;;;;;2089506;28;20261;-61
2020/12/13 01:31:11;;;;;;;87.28;39.75;;;;;;;;;;2087552;28;20176;-59
2020/12/13 01:32:12;;;;;;;78.97;36.83;;;;;;;;;;2091647;28;20178;-60
2020/12/13 01:33:12;;;;;;;85.75;38.97;;;;;;;;;;2091742;28;20191;-60
2020/12/13 01:34:12;;;;;;;84.97;39.13;;;;;;;;;;2089393;28;20187;-60
2020/12/13 01:35:13;;;;;;;82.55;37.53;;;;;;;;;;2090287;28;20167;-59
2020/12/13 01:36:14;;;;;;;81.38;36.78;;;;;;;;;;2089902;28;20183;-60
2020/12/13 01:37:14;;;;;;;81.53;42.05;;;;;;;;;;2088982;28;20636;-61
2020/12/13 01:38:14;;;;;;;84.38;40.00;;;;;;;;;;2079297;28;20184;-61
2020/12/13 01:39:14;;;;;;;84.75;39.53;;;;;;;;;;2079264;28;20715;-59
2020/12/13 01:40:14;;;;;;;84.03;38.75;;;;;;;;;;2090212;28;20258;-60
2020/12/13 01:41:15;;;;;;;91.70;39.70;;;;;;;;;;2077920;28;20688;-60
2020/12/13 01:42:15;;;;;;;93.10;39.72;;;;;;;;;;2074580;28;20276;-59
2020/12/13 01:43:16;;;;;;;76.15;38.03;;;;;;;;;;2072938;28;20188;-63
2020/12/13 01:44:16;;;;;;;97.32;39.05;;;;;;;;;;2072403;28;20254;-56
2020/12/13 01:45:20;;;;;;;81.00;36.90;;;;;;;;;;2073582;28;20191;-59
2020/12/13 01:46:20;;;;;;;87.67;40.47;;;;;;;;;;2083732;28;20180;-60
2020/12/13 01:47:22;;;;;;;85.38;38.33;;;;;;;;;;2088533;28;20234;-62
2020/12/13 01:48:22;;;;;;;81.03;40.10;;;;;;;;;;2092077;28;20262;-61
2020/12/13 01:49:24;;;;;;;94.05;41.35;;;;;;;;;;2083819;28;20179;-59
2020/12/13 01:50:42;;;;;;;94.85;40.65;;;;;;;;;;2075087;28;20649;-62
2020/12/13 01:52:50;;;;;;;82.28;40.55;;;;;;;;;;2088062;28;20181;-62
2020/12/13 01:53:52;;;;;;;83.35;41.05;;;;;;;;;;2080901;28;20664;-62
2020/12/13 01:55:01;;;;;;;85.28;39.25;;;;;;;;;;2071720;28;20280;-60
2020/12/13 01:56:02;;;;;;;81.18;39.63;;;;;;;;;;2086139;28;20184;-62
2020/12/13 01:57:03;;;;;;;97.25;53.70;;;;;;;;;;2097346;28;20225;-63
2020/12/13 01:58:04;;;;;;;75.68;40.80;;;;;;;;;;2093419;28;20295;-60
2020/12/13 01:59:05;;;;;;;82.50;40.00;;;;;;;;;;2089835;28;20198;-62
2020/12/13 02:00:13;;;;;;;70.35;38.00;;;;;;;;;;2095146;28;20185;-63
2020/12/13 02:01:14;;;;;;;74.47;36.77;;;;;;;;;;2091822;28;20195;-62
2020/12/13 02:02:15;;;;;;;77.13;36.92;;;;;;;;;;2092997;28;20179;-60
2020/12/13 02:03:19;;;;;;;83.60;37.63;;;;;;;;;;2090297;28;20283;-63
2020/12/13 02:04:20;;;;;;;67.38;35.17;;;;;;;;;;2084368;28;20263;-60
2020/12/13 02:05:21;;;;;;;67.00;35.03;;;;;;;;;;2082255;28;20689;-60
2020/12/13 02:06:24;;;;;;;83.45;36.83;;;;;;;;;;2081514;28;20179;-61
2020/12/13 02:07:25;;;;;;;77.68;36.70;;;;;;;;;;2091987;28;20207;-60
2020/12/13 02:08:35;;;;;;;76.65;35.75;;;;;;;;;;2088501;28;20183;-58
2020/12/13 02:09:35;;;;;;;70.97;36.67;;;;;;;;;;2081872;28;20195;-64
2020/12/13 02:10:35;;;;;;;72.57;34.92;;;;;;;;;;2082026;28;20188;-62
2020/12/13 02:11:35;;;;;;;76.45;36.58;;;;;;;;;;2082754;28;20177;-62
2020/12/13 02:12:36;;;;;;;73.63;36.22;;;;;;;;;;2083013;28;20894;-59
2020/12/13 02:13:39;;;;;;;76.80;37.15;;;;;;;;;;2083150;28;20185;-62
2020/12/13 02:14:39;;;;;;;67.28;35.03;;;;;;;;;;2080514;28;20641;-61
2020/12/13 02:15:39;;;;;;;71.63;34.85;;;;;;;;;;2078553;28;20186;-63
2020/12/13 02:16:42;;;;;;;70.03;35.90;;;;;;;;;;2083751;28;20192;-58
2020/12/13 02:17:42;;;;;;;72.32;35.70;;;;;;;;;;2083443;28;20702;-58
2020/12/13 02:18:42;;;;;;;71.45;34.83;;;;;;;;;;2090173;28;20178;-62
2020/12/13 02:19:43;;;;;;;73.40;35.42;;;;;;;;;;2090517;28;20235;-60
2020/12/13 02:20:43;;;;;;;74.03;36.85;;;;;;;;;;2083291;28;20184;-60
2020/12/13 02:21:47;;;;;;;75.40;36.85;;;;;;;;;;2084974;28;20524;-61
2020/12/13 02:22:48;;;;;;;81.88;36.33;;;;;;;;;;2081369;28;20188;-59
2020/12/13 02:23:48;;;;;;;67.40;34.13;;;;;;;;;;2081840;28;20172;-60
2020/12/13 02:24:48;;;;;;;77.38;37.10;;;;;;;;;;2088201;28;20176;-63
2020/12/13 02:25:49;;;;;;;77.65;36.45;;;;;;;;;;2086422;28;20179;-59
2020/12/13 02:26:50;;;;;;;74.72;37.55;;;;;;;;;;2085981;28;20168;-60
2020/12/13 02:27:50;;;;;;;73.85;35.65;;;;;;;;;;2090455;28;20210;-62
2020/12/13 02:28:50;;;;;;;68.38;34.50;;;;;;;;;;2073941;28;20246;-60
2020/12/13 02:29:51;;;;;;;70.10;35.55;;;;;;;;;;2073755;28;20184;-62
2020/12/13 02:30:51;;;;;;;67.45;35.70;;;;;;;;;;2092888;28;20201;-62
2020/12/13 02:31:51;;;;;;;71.78;35.25;;;;;;;;;;2083384;28;20187;-60
2020/12/13 02:32:52;;;;;;;80.38;36.95;;;;;;;;;;2081434;28;20187;-59
2020/12/13 02:33:52;;;;;;;69.40;36.33;;;;;;;;;;2092096;28;20187;-61
2020/12/13 02:34:52;;;;;;;70.90;35.63;;;;;;;;;;2096013;28;20183;-62
2020/12/13 02:35:52;;;;;;;72.88;36.05;;;;;;;;;;2090149;28;20517;-61
2020/12/13 02:36:53;;;;;;;68.03;35.40;;;;;;;;;;2091656;28;20207;-63
2020/12/13 02:37:53;;;;;;;77.55;38.58;;;;;;;;;;2091732;28;20199;-62
2020/12/13 02:38:53;;;;;;;77.20;36.50;;;;;;;;;;2090736;28;20640;-63
2020/12/13 02:39:53;;;;;;;69.60;35.10;;;;;;;;;;2080192;28;20213;-62
2020/12/13 02:40:54;;;;;;;70.90;35.50;;;;;;;;;;2077978;28;20195;-61
2020/12/13 02:41:58;;;;;;;70.60;35.53;;;;;;;;;;2086068;28;20176;-59
2020/12/13 02:42:58;;;;;;;75.15;36.58;;;;;;;;;;2093639;28;20188;-61
2020/12/13 02:43:58;;;;;;;72.55;35.67;;;;;;;;;;2095210;28;20262;-61
2020/12/13 02:44:58;;;;;;;78.25;36.05;;;;;;;;;;2098916;28;20211;-62
2020/12/13 02:45:59;;;;;;;74.60;36.28;;;;;;;;;;2092972;28;20567;-57
2020/12/13 02:46:59;;;;;;;72.15;36.35;;;;;;;;;;2092427;28;20188;-60
2020/12/13 02:47:59;;;;;;;73.63;35.60;;;;;;;;;;2092704;28;20204;-60
2020/12/13 02:48:59;;;;;;;69.43;37.08;;;;;;;;;;2088704;28;20198;-63
2020/12/13 02:50:00;;;;;;;74.07;36.80;;;;;;;;;;2089028;28;20179;-59
2020/12/13 02:51:00;;;;;;;68.20;36.72;;;;;;;;;;2092793;28;20795;-58
2020/12/13 02:52:00;;;;;;;76.85;38.30;;;;;;;;;;2091698;28;20695;-61
2020/12/13 02:53:00;;;;;;;67.85;35.80;;;;;;;;;;2089840;28;20179;-62
2020/12/13 02:54:01;;;;;;;75.55;36.67;;;;;;;;;;2087761;28;20194;-59
2020/12/13 02:55:01;;;;;;;67.03;34.25;;;;;;;;;;2093909;28;20186;-59
2020/12/13 02:56:01;;;;;;;78.35;37.65;;;;;;;;;;2091014;28;20183;-60
2020/12/13 02:57:02;;;;;;;73.13;35.50;;;;;;;;;;2091138;28;20192;-61
2020/12/13 02:58:03;;;;;;;78.22;37.08;;;;;;;;;;2094048;28;20249;-59
2020/12/13 02:59:03;;;;;;;66.43;34.67;;;;;;;;;;2093603;28;20245;-60
2020/12/13 03:00:03;;;;;;;76.60;38.42;;;;;;;;;;2087911;28;20191;-60
2020/12/13 03:01:03;;;;;;;75.75;37.38;;;;;;;;;;2089492;28;20190;-60
2020/12/13 03:02:04;;;;;;;70.75;35.33;;;;;;;;;;2088723;28;20171;-59
2020/12/13 03:03:04;;;;;;;74.75;35.65;;;;;;;;;;2094604;28;20210;-60
2020/12/13 03:04:04;;;;;;;84.93;40.65;;;;;;;;;;2089316;28;20200;-62
2020/12/13 03:05:04;;;;;;;70.57;37.50;;;;;;;;;;2090714;28;20234;-59
2020/12/13 03:06:05;;;;;;;73.13;37.47;;;;;;;;;;2090329;28;20198;-58
2020/12/13 03:07:05;;;;;;;72.18;35.92;;;;;;;;;;2093335;28;20183;-58
2020/12/13 03:08:07;;;;;;;71.53;36.72;;;;;;;;;;2083065;28;20188;-61
2020/12/13 03:09:07;;;;;;;73.95;35.00;;;;;;;;;;2081182;28;20171;-62
2020/12/13 03:10:07;;;;;;;72.50;34.13;;;;;;;;;;2090994;28;20172;-59
2020/12/13 03:11:07;;;;;;;75.32;34.67;;;;;;;;;;2087517;28;20164;-61
2020/12/13 03:12:07;;;;;;;71.95;36.53;;;;;;;;;;2089228;28;20168;-61
2020/12/13 03:13:08;;;;;;;75.63;37.50;;;;;;;;;;2093518;28;20244;-60
2020/12/13 03:14:08;;;;;;;77.07;35.22;;;;;;;;;;2089548;28;20188;-60
2020/12/13 03:15:08;;;;;;;74.27;38.60;;;;;;;;;;2081103;28;21199;-60
2020/12/13 03:16:08;;;;;;;75.60;37.45;;;;;;;;;;2080147;28;20212;-59
2020/12/13 03:17:09;;;;;;;80.15;38.20;;;;;;;;;;2080793;28;20234;-59
2020/12/13 03:18:09;;;;;;;76.15;36.03;;;;;;;;;;2073957;28;20189;-62
2020/12/13 03:19:09;;;;;;;80.95;37.03;;;;;;;;;;2082205;28;20262;-62
2020/12/13 03:20:10;;;;;;;79.25;37.13;;;;;;;;;;2078122;28;20259;-60
2020/12/13 03:21:10;;;;;;;85.60;39.57;;;;;;;;;;2073846;28;20242;-58
2020/12/13 03:22:10;;;;;;;86.38;38.08;;;;;;;;;;2083849;28;20176;-58
2020/12/13 03:23:10;;;;;;;83.68;37.67;;;;;;;;;;2090998;28;20179;-58
2020/12/13 03:24:11;;;;;;;77.30;38.13;;;;;;;;;;2081883;28;20204;-61
2020/12/13 03:25:11;;;;;;;79.55;38.03;;;;;;;;;;2085986;28;20175;-61
2020/12/13 03:26:12;;;;;;;85.40;38.05;;;;;;;;;;2094906;28;20179;-62
2020/12/13 03:27:12;;;;;;;86.17;39.50;;;;;;;;;;2083985;28;20205;-61
2020/12/13 03:28:12;;;;;;;83.13;39.33;;;;;;;;;;2082614;28;20183;-59
2020/12/13 03:29:13;;;;;;;77.20;38.17;;;;;;;;;;2085723;28;20806;-60
2020/12/13 03:30:13;;;;;;;80.43;36.88;;;;;;;;;;2094304;28;20266;-60
2020/12/13 03:31:13;;;;;;;78.80;37.15;;;;;;;;;;2081679;28;20194;-59
2020/12/13 03:32:13;;;;;;;78.88;38.25;;;;;;;;;;2081529;28;20176;-59
2020/12/13 03:33:13;;;;;;;80.93;39.78;;;;;;;;;;2088315;28;20190;-61
2020/12/13 03:34:14;;;;;;;80.15;37.47;;;;;;;;;;2092440;28;20175;-60
2020/12/13 03:35:14;;;;;;;85.57;37.42;;;;;;;;;;2087054;28;20234;-58
2020/12/13 03:36:14;;;;;;;85.43;38.40;;;;;;;;;;2083966;28;20263;-63
2020/12/13 03:37:17;;;;;;;86.57;37.25;;;;;;;;;;2083500;28;20586;-60
2020/12/13 03:38:17;;;;;;;83.27;38.53;;;;;;;;;;2090985;28;20187;-61
2020/12/13 03:39:18;;;;;;;77.68;36.45;;;;;;;;;;2092803;28;20175;-60
2020/12/13 03:40:18;;;;;;;80.60;35.58;;;;;;;;;;2085172;28;20164;-60
2020/12/13 03:41:18;;;;;;;78.22;38.35;;;;;;;;;;2089772;28;20179;-60
2020/12/13 03:42:18;;;;;;;78.90;37.28;;;;;;;;;;2088628;28;20180;-60
2020/12/13 03:43:19;;;;;;;81.60;37.30;;;;;;;;;;2079602;28;20312;-59
2020/12/13 03:44:19;;;;;;;77.15;36.17;;;;;;;;;;2076416;28;20224;-61
2020/12/13 03:45:19;;;;;;;79.32;37.75;;;;;;;;;;2091931;28;20182;-60
2020/12/13 03:46:19;;;;;;;79.25;37.20;;;;;;;;;;2089399;28;20179;-61
2020/12/13 03:47:19;;;;;;;79.88;38.47;;;;;;;;;;2090546;28;20176;-60
2020/12/13 03:48:20;;;;;;;86.50;38.58;;;;;;;;;;2087813;28;20266;-59
2020/12/13 03:49:20;;;;;;;77.80;37.65;;;;;;;;;;2091105;28;20225;-60
2020/12/13 03:50:20;;;;;;;85.55;38.50;;;;;;;;;;2082708;28;20660;-61
2020/12/13 03:51:20;;;;;;;83.40;36.80;;;;;;;;;;2082108;28;20173;-62
2020/12/13 03:52:21;;;;;;;80.75;39.20;;;;;;;;;;2088699;28;20275;-61
2020/12/13 03:53:21;;;;;;;78.50;37.63;;;;;;;;;;2083162;28;20233;-61
2020/12/13 03:54:21;;;;;;;81.05;35.22;;;;;;;;;;2082907;28;20187;-62
2020/12/13 03:55:21;;;;;;;77.30;36.80;;;;;;;;;;2092225;28;20183;-62
2020/12/13 03:56:21;;;;;;;84.07;37.45;;;;;;;;;;2091284;28;20186;-62
2020/12/13 03:57:22;;;;;;;82.22;37.22;;;;;;;;;;2089230;28;20240;-62
2020/12/13 03:58:22;;;;;;;80.07;36.55;;;;;;;;;;2081226;28;20194;-59
2020/12/13 03:59:22;;;;;;;77.85;35.90;;;;;;;;;;2081800;28;20267;-63
2020/12/13 04:00:22;;;;;;;75.20;34.67;;;;;;;;;;2090402;28;20208;-61
2020/12/13 04:01:23;;;;;;;74.87;35.10;;;;;;;;;;2089439;28;20241;-63
2020/12/13 04:02:23;;;;;;;75.93;35.65;;;;;;;;;;2091013;28;20191;-59
2020/12/13 04:03:23;;;;;;;70.88;34.85;;;;;;;;;;2091088;28;20172;-58
2020/12/13 04:04:23;;;;;;;70.03;35.17;;;;;;;;;;2084259;28;20275;-61
2020/12/13 04:05:24;;;;;;;68.53;31.87;;;;;;;;;;2085364;28;20206;-62
2020/12/13 04:06:24;;;;;;;67.63;32.35;;;;;;;;;;2089701;28;20172;-61
2020/12/13 04:07:24;;;;;;;68.55;32.63;;;;;;;;;;2086042;28;20184;-62
2020/12/13 04:08:24;;;;;;;64.93;33.33;;;;;;;;;;2087230;28;20192;-62
2020/12/13 04:09:25;;;;;;;66.63;32.70;;;;;;;;;;2097330;28;20334;-61
2020/12/13 04:10:25;;;;;;;73.30;32.33;;;;;;;;;;2086804;28;20239;-60
2020/12/13 04:11:25;;;;;;;71.43;33.03;;;;;;;;;;2081487;28;20653;-60
2020/12/13 04:12:26;;;;;;;75.15;36.10;;;;;;;;;;2093294;28;20175;-59
2020/12/13 04:13:26;;;;;;;65.45;33.08;;;;;;;;;;2096543;28;20229;-62
2020/12/13 04:14:26;;;;;;;74.33;33.57;;;;;;;;;;2094408;28;20188;-60
2020/12/13 04:15:26;;;;;;;68.55;33.17;;;;;;;;;;2093307;28;20172;-59
2020/12/13 04:16:29;;;;;;;68.10;33.10;;;;;;;;;;2093917;28;20540;-60
2020/12/13 04:17:29;;;;;;;65.47;32.22;;;;;;;;;;2089223;28;20293;-60
2020/12/13 04:18:30;;;;;;;61.40;31.23;;;;;;;;;;2091941;28;20172;-59
2020/12/13 04:19:35;;;;;;;62.45;31.10;;;;;;;;;;2092791;28;20194;-59
2020/12/13 04:20:35;;;;;;;64.37;31.00;;;;;;;;;;2094412;28;20179;-61
2020/12/13 04:21:35;;;;;;;67.28;31.38;;;;;;;;;;2081251;28;20181;-62
2020/12/13 04:22:35;;;;;;;62.90;30.90;;;;;;;;;;2084485;28;20180;-61
2020/12/13 04:23:36;;;;;;;76.53;33.17;;;;;;;;;;2092298;28;20652;-58
2020/12/13 04:24:36;;;;;;;69.17;33.70;;;;;;;;;;2085311;28;20250;-63
2020/12/13 04:25:36;;;;;;;69.43;34.37;;;;;;;;;;2082186;28;20204;-63
2020/12/13 04:26:36;;;;;;;68.67;33.33;;;;;;;;;;2090531;28;20210;-61
2020/12/13 04:27:37;;;;;;;75.65;33.22;;;;;;;;;;2094930;28;20218;-62
2020/12/13 04:28:37;;;;;;;62.72;31.42;;;;;;;;;;2092563;28;20222;-61
2020/12/13 04:29:37;;;;;;;62.55;31.65;;;;;;;;;;2088086;28;20164;-60
2020/12/13 04:30:37;;;;;;;73.63;32.97;;;;;;;;;;2094289;28;20187;-60
2020/12/13 04:31:38;;;;;;;69.38;33.08;;;;;;;;;;2090926;28;20210;-61
2020/12/13 04:32:38;;;;;;;62.88;32.25;;;;;;;;;;2087459;28;20691;-64
2020/12/13 04:33:38;;;;;;;70.27;33.53;;;;;;;;;;2090689;28;20187;-62
2020/12/13 04:34:38;;;;;;;65.07;34.17;;;;;;;;;;2091758;28;20186;-60
2020/12/13 04:35:39;;;;;;;68.47;32.23;;;;;;;;;;2085770;28;20187;-60
2020/12/13 04:36:39;;;;;;;70.00;29.75;;;;;;;;;;2091000;28;20191;-60
2020/12/13 04:37:39;;;;;;;71.87;34.13;;;;;;;;;;2090708;28;20215;-60
2020/12/13 04:38:39;;;;;;;66.72;32.20;;;;;;;;;;2089181;28;20183;-60
2020/12/13 04:39:40;;;;;;;69.88;32.10;;;;;;;;;;2090393;28;20191;-61
2020/12/13 04:40:40;;;;;;;66.63;32.77;;;;;;;;;;2090683;28;20198;-59
2020/12/13 04:41:40;;;;;;;64.50;33.03;;;;;;;;;;2087942;28;20263;-63
2020/12/13 04:42:40;;;;;;;69.03;32.43;;;;;;;;;;2090450;28;20187;-63
2020/12/13 04:43:41;;;;;;;66.65;31.40;;;;;;;;;;2087958;28;20187;-62
2020/12/13 04:44:41;;;;;;;64.55;31.38;;;;;;;;;;2090252;28;20168;-62
2020/12/13 04:45:42;;;;;;;66.50;32.33;;;;;;;;;;2088763;28;20198;-57
2020/12/13 04:46:44;;;;;;;60.60;31.30;;;;;;;;;;2091434;28;20184;-58
2020/12/13 04:47:53;;;;;;;62.10;30.30;;;;;;;;;;2082979;28;20192;-59
2020/12/13 04:48:53;;;;;;;55.45;28.48;;;;;;;;;;2083683;28;20195;-60
2020/12/13 04:49:54;;;;;;;49.20;25.75;;;;;;;;;;2091063;28;20716;-58
2020/12/13 04:50:56;;;;;;;47.90;25.30;;;;;;;;;;2081754;28;20198;-61
2020/12/13 04:51:58;;;;;;;45.40;25.58;;;;;;;;;;2081728;28;20777;-59
2020/12/13 04:52:58;;;;;;;45.90;23.40;;;;;;;;;;2073642;28;20175;-59
2020/12/13 04:54:05;;;;;;;40.15;23.52;;;;;;;;;;2071461;28;20181;-62
2020/12/13 04:55:06;;;;;;;40.17;21.63;;;;;;;;;;2083656;28;20565;-63
2020/12/13 04:56:09;;;;;;;39.43;22.20;;;;;;;;;;2088982;28;20168;-60
2020/12/13 04:57:09;;;;;;;34.15;21.23;;;;;;;;;;2090324;28;20172;-58
2020/12/13 04:58:11;;;;;;;31.37;19.03;;;;;;;;;;2081671;28;20659;-61
2020/12/13 04:59:12;;;;;;;39.17;20.63;;;;;;;;;;2080372;28;20191;-61
2020/12/13 05:00:16;;;;;;;34.65;21.27;;;;;;;;;;2090011;28;20178;-59
2020/12/13 05:01:16;;;;;;;34.90;20.00;;;;;;;;;;2093020;28;20266;-59
2020/12/13 05:02:17;;;;;;;30.37;18.93;;;;;;;;;;2083307;28;20177;-62
2020/12/13 05:03:17;;;;;;;30.48;17.73;;;;;;;;;;2082347;28;20192;-59
2020/12/13 05:04:17;;;;;;;33.57;20.07;;;;;;;;;;2081924;28;20246;-62
2020/12/13 05:05:19;;;;;;;30.30;19.35;;;;;;;;;;2082024;28;20168;-60
2020/12/13 05:06:19;;;;;;;29.70;17.92;;;;;;;;;;2092698;28;20257;-60
2020/12/13 05:07:21;;;;;;;35.42;18.25;;;;;;;;;;2091079;28;20250;-59
2020/12/13 05:08:22;;;;;;;28.17;16.98;;;;;;;;;;2084020;28;20186;-58
2020/12/13 05:09:22;;;;;;;31.23;17.47;;;;;;;;;;2081425;28;20336;-62
2020/12/13 05:10:23;;;;;;;30.00;18.85;;;;;;;;;;2087898;28;20165;-62
2020/12/13 05:11:23;;;;;;;31.17;17.67;;;;;;;;;;2086885;28;20191;-60
2020/12/13 05:12:24;;;;;;;34.23;18.83;;;;;;;;;;2084063;28;20176;-61
2020/12/13 05:13:24;;;;;;;31.80;18.38;;;;;;;;;;2089631;28;20179;-59
2020/12/13 05:14:24;;;;;;;28.58;17.52;;;;;;;;;;2090323;28;20241;-60
2020/12/13 05:15:24;;;;;;;30.95;17.40;;;;;;;;;;2083833;28;20176;-63
2020/12/13 05:16:25;;;;;;;29.63;18.70;;;;;;;;;;2083676;28;20171;-60
2020/12/13 05:17:25;;;;;;;28.57;16.40;;;;;;;;;;2084071;28;20204;-61
2020/12/13 05:18:25;;;;;;;27.95;17.23;;;;;;;;;;2087658;28;20187;-58
2020/12/13 05:19:25;;;;;;;25.17;16.60;;;;;;;;;;2083628;28;20213;-61
2020/12/13 05:20:29;;;;;;;26.48;16.38;;;;;;;;;;2087482;28;20690;-61
2020/12/13 05:21:29;;;;;;;27.73;16.88;;;;;;;;;;2080428;28;20226;-62
2020/12/13 05:22:36;;;;;;;27.80;17.85;;;;;;;;;;2082228;28;20184;-63
2020/12/13 05:23:36;;;;;;;30.48;16.23;;;;;;;;;;2089759;28;20190;-59
2020/12/13 05:24:36;;;;;;;28.17;16.53;;;;;;;;;;2087775;28;20656;-62
2020/12/13 05:25:38;;;;;;;35.13;19.30;;;;;;;;;;2089563;28;20267;-60
2020/12/13 05:26:38;;;;;;;25.40;16.63;;;;;;;;;;2094199;28;20275;-60
2020/12/13 05:27:40;;;;;;;32.50;19.60;;;;;;;;;;2080830;28;20551;-60
2020/12/13 05:28:46;;;;;;;29.17;17.57;;;;;;;;;;2082145;28;20184;-59
2020/12/13 05:29:48;;;;;;;31.03;18.37;;;;;;;;;;2090021;28;20163;-61
2020/12/13 05:30:49;;;;;;;32.67;18.10;;;;;;;;;;2092735;28;20183;-60
2020/12/13 05:31:49;;;;;;;31.50;19.42;;;;;;;;;;2080682;28;20199;-62
2020/12/13 05:32:49;;;;;;;32.78;19.70;;;;;;;;;;2079738;28;20264;-59
2020/12/13 05:34:08;;;;;;;32.43;20.00;;;;;;;;;;2091350;28;20178;-62
2020/12/13 05:35:11;;;;;;;32.43;18.37;;;;;;;;;;2086552;28;20195;-62
2020/12/13 05:36:11;;;;;;;40.73;20.27;;;;;;;;;;2090390;28;20597;-61
2020/12/13 05:37:16;;;;;;;39.28;20.83;;;;;;;;;;2082914;28;20221;-61
2020/12/13 05:38:16;;;;;;;34.87;19.57;;;;;;;;;;2076646;28;20196;-61
2020/12/13 05:39:17;;;;;;;33.23;19.43;;;;;;;;;;2068070;28;20255;-56
2020/12/13 05:40:17;;;;;;;39.93;21.27;;;;;;;;;;2075324;28;20196;-59
2020/12/13 05:41:17;;;;;;;38.00;21.17;;;;;;;;;;2092822;28;20175;-59
2020/12/13 05:42:30;;;;;;;35.90;20.17;;;;;;;;;;2090313;28;20176;-60
2020/12/13 05:43:34;;;;;;;33.33;19.85;;;;;;;;;;2091000;28;20188;-62
2020/12/13 05:48:07;;;;;;;29.05;19.17;;;;;;;;;;2055966;28;20197;-62
2020/12/13 05:49:35;;;;;;;28.23;17.37;;;;;;;;;;2085998;28;20679;-61
2020/12/13 05:51:50;;;;;;;33.40;18.93;;;;;;;;;;2088435;28;20164;-60
2020/12/13 05:52:52;;;;;;;33.47;19.83;;;;;;;;;;2086200;28;20180;-61
2020/12/13 05:53:54;;;;;;;32.15;20.33;;;;;;;;;;2088573;28;20621;-61
2020/12/13 05:54:55;;;;;;;35.87;20.30;;;;;;;;;;2088014;28;20186;-59
2020/12/13 05:55:57;;;;;;;30.10;18.33;;;;;;;;;;2078482;28;20203;-60
2020/12/13 05:56:58;;;;;;;33.23;20.43;;;;;;;;;;2079221;28;20187;-60
2020/12/13 05:57:59;;;;;;;35.53;21.03;;;;;;;;;;2080778;28;20254;-63
2020/12/13 05:59:00;;;;;;;33.50;20.33;;;;;;;;;;2081599;28;20299;-58
2020/12/13 06:00:00;;;;;;;34.83;20.47;;;;;;;;;;2081672;28;20795;-62
2020/12/13 06:01:03;;;;;;;34.40;19.63;;;;;;;;;;2088853;28;20205;-60